sensor_id;sensor_type;location;lat;lon;timestamp;temperature;humidity
15947;DHT22;8072;52.554;7.966;2023-12-28T00:01:37;8.40;99.90
15947;DHT22;8072;52.554;7.966;2023-12-28T00:04:03;8.40;99.90
15947;DHT22;8072;52.554;7.966;2023-12-28T00:06:31;8.40;99.90
15947;DHT22;8072;52.554;7.966;2023-12-28T00:08:57;8.40;99.90
15947;DHT22;8072;52.554;7.966;2023-12-28T00:11:23;8.40;99.90
15947;DHT22;8072;52.554;7.966;2023-12-28T00:13:50;8.50;99.90
15947;DHT22;8072;52.554;7.966;2023-12-28T00:16:16;8.50;99.90
15947;DHT22;8072;52.554;7.966;2023-12-28T00:18:42;8.40;99.90
15947;DHT22;8072;52.554;7.966;2023-12-28T00:21:08;8.50;99.90
15947;DHT22;8072;52.554;7.966;2023-12-28T00:23:34;8.50;99.90
15947;DHT22;8072;52.554;7.966;2023-12-28T00:25:59;8.50;99.90
15947;DHT22;8072;52.554;7.966;2023-12-28T00:28:26;8.40;99.90
15947;DHT22;8072;52.554;7.966;2023-12-28T00:30:52;8.50;99.90
15947;DHT22;8072;52.554;7.966;2023-12-28T00:33:18;8.50;99.90
15947;DHT22;8072;52.554;7.966;2023-12-28T00:35:43;8.50;99.90
15947;DHT22;8072;52.554;7.966;2023-12-28T00:38:10;8.50;99.90
15947;DHT22;8072;52.554;7.966;2023-12-28T00:40:36;8.50;99.90
15947;DHT22;8072;52.554;7.966;2023-12-28T00:43:03;8.50;99.90
15947;DHT22;8072;52.554;7.966;2023-12-28T00:45:29;8.50;99.90
15947;DHT22;8072;52.554;7.966;2023-12-28T00:47:55;8.50;99.90
15947;DHT22;8072;52.554;7.966;2023-12-28T00:50:22;8.50;99.90
15947;DHT22;8072;52.554;7.966;2023-12-28T00:52:51;8.50;99.90
15947;DHT22;8072;52.554;7.966;2023-12-28T00:55:18;8.50;99.90
15947;DHT22;8072;52.554;7.966;2023-12-28T00:57:43;8.60;99.90
15947;DHT22;8072;52.554;7.966;2023-12-28T01:00:10;8.60;99.90
15947;DHT22;8072;52.554;7.966;2023-12-28T01:02:36;8.50;99.90
15947;DHT22;8072;52.554;7.966;2023-12-28T01:05:01;8.60;99.90
15947;DHT22;8072;52.554;7.966;2023-12-28T01:07:27;8.50;99.90
15947;DHT22;8072;52.554;7.966;2023-12-28T01:09:53;8.50;99.90
15947;DHT22;8072;52.554;7.966;2023-12-28T01:12:19;8.50;99.90
15947;DHT22;8072;52.554;7.966;2023-12-28T01:14:45;8.50;99.90
15947;DHT22;8072;52.554;7.966;2023-12-28T01:17:11;8.60;99.90
15947;DHT22;8072;52.554;7.966;2023-12-28T01:19:37;8.60;99.90
15947;DHT22;8072;52.554;7.966;2023-12-28T01:22:03;8.50;99.90
15947;DHT22;8072;52.554;7.966;2023-12-28T01:24:28;8.50;99.90
15947;DHT22;8072;52.554;7.966;2023-12-28T01:26:54;8.60;99.90
15947;DHT22;8072;52.554;7.966;2023-12-28T01:29:23;8.60;99.90
15947;DHT22;8072;52.554;7.966;2023-12-28T01:31:48;8.60;99.90
15947;DHT22;8072;52.554;7.966;2023-12-28T01:34:14;8.60;99.90
15947;DHT22;8072;52.554;7.966;2023-12-28T01:36:40;8.60;99.90
15947;DHT22;8072;52.554;7.966;2023-12-28T01:39:09;8.60;99.90
15947;DHT22;8072;52.554;7.966;2023-12-28T01:41:36;8.70;99.90
15947;DHT22;8072;52.554;7.966;2023-12-28T01:44:02;8.70;99.90
15947;DHT22;8072;52.554;7.966;2023-12-28T01:46:28;8.60;99.90
15947;DHT22;8072;52.554;7.966;2023-12-28T01:48:55;8.70;99.90
15947;DHT22;8072;52.554;7.966;2023-12-28T01:51:23;8.70;99.90
15947;DHT22;8072;52.554;7.966;2023-12-28T01:53:51;8.70;99.90
15947;DHT22;8072;52.554;7.966;2023-12-28T01:56:19;8.60;99.90
15947;DHT22;8072;52.554;7.966;2023-12-28T01:58:46;8.60;99.90
15947;DHT22;8072;52.554;7.966;2023-12-28T02:01:14;8.70;99.90
15947;DHT22;8072;52.554;7.966;2023-12-28T02:03:40;8.70;99.90
15947;DHT22;8072;52.554;7.966;2023-12-28T02:06:09;8.70;99.90
15947;DHT22;8072;52.554;7.966;2023-12-28T02:08:35;8.70;99.90
15947;DHT22;8072;52.554;7.966;2023-12-28T02:11:02;8.60;99.90
15947;DHT22;8072;52.554;7.966;2023-12-28T02:13:29;8.70;99.90
15947;DHT22;8072;52.554;7.966;2023-12-28T02:16:13;8.60;99.90
15947;DHT22;8072;52.554;7.966;2023-12-28T02:18:47;8.70;99.90
15947;DHT22;8072;52.554;7.966;2023-12-28T02:21:15;8.70;99.90
15947;DHT22;8072;52.554;7.966;2023-12-28T02:23:52;8.70;99.90
15947;DHT22;8072;52.554;7.966;2023-12-28T02:26:19;8.60;99.90
15947;DHT22;8072;52.554;7.966;2023-12-28T02:28:47;8.60;99.90
15947;DHT22;8072;52.554;7.966;2023-12-28T02:31:21;8.50;99.90
15947;DHT22;8072;52.554;7.966;2023-12-28T02:33:58;8.60;99.90
15947;DHT22;8072;52.554;7.966;2023-12-28T02:36:26;8.60;99.90
15947;DHT22;8072;52.554;7.966;2023-12-28T02:38:53;8.60;99.90
15947;DHT22;8072;52.554;7.966;2023-12-28T02:41:21;8.60;99.90
15947;DHT22;8072;52.554;7.966;2023-12-28T02:43:48;8.60;99.90
15947;DHT22;8072;52.554;7.966;2023-12-28T02:46:14;8.60;99.90
15947;DHT22;8072;52.554;7.966;2023-12-28T02:48:40;8.60;99.90
15947;DHT22;8072;52.554;7.966;2023-12-28T02:51:06;8.60;99.90
15947;DHT22;8072;52.554;7.966;2023-12-28T02:53:31;8.60;99.90
15947;DHT22;8072;52.554;7.966;2023-12-28T02:55:57;8.70;99.90
15947;DHT22;8072;52.554;7.966;2023-12-28T02:58:23;8.70;99.90
15947;DHT22;8072;52.554;7.966;2023-12-28T03:00:49;8.70;99.90
15947;DHT22;8072;52.554;7.966;2023-12-28T03:03:15;8.70;99.90
15947;DHT22;8072;52.554;7.966;2023-12-28T03:05:41;8.70;99.90
15947;DHT22;8072;52.554;7.966;2023-12-28T03:08:07;8.60;99.90
15947;DHT22;8072;52.554;7.966;2023-12-28T03:10:32;8.70;99.90
15947;DHT22;8072;52.554;7.966;2023-12-28T03:12:58;8.70;99.90
15947;DHT22;8072;52.554;7.966;2023-12-28T03:15:25;8.60;99.90
15947;DHT22;8072;52.554;7.966;2023-12-28T03:17:52;8.70;99.90
15947;DHT22;8072;52.554;7.966;2023-12-28T03:20:20;8.70;99.90
15947;DHT22;8072;52.554;7.966;2023-12-28T03:22:47;8.70;99.90
15947;DHT22;8072;52.554;7.966;2023-12-28T03:25:15;8.70;99.90
15947;DHT22;8072;52.554;7.966;2023-12-28T03:27:42;8.70;99.90
15947;DHT22;8072;52.554;7.966;2023-12-28T03:30:08;8.70;99.90
15947;DHT22;8072;52.554;7.966;2023-12-28T03:32:34;8.70;99.90
15947;DHT22;8072;52.554;7.966;2023-12-28T03:35:05;8.70;99.90
15947;DHT22;8072;52.554;7.966;2023-12-28T03:37:32;8.80;99.90
15947;DHT22;8072;52.554;7.966;2023-12-28T03:39:58;8.80;99.90
15947;DHT22;8072;52.554;7.966;2023-12-28T03:42:24;8.90;99.90
15947;DHT22;8072;52.554;7.966;2023-12-28T03:44:50;8.90;99.90
15947;DHT22;8072;52.554;7.966;2023-12-28T03:47:16;8.90;99.90
15947;DHT22;8072;52.554;7.966;2023-12-28T03:49:42;8.80;99.90
15947;DHT22;8072;52.554;7.966;2023-12-28T03:52:09;8.80;99.90
15947;DHT22;8072;52.554;7.966;2023-12-28T03:54:35;8.90;99.90
15947;DHT22;8072;52.554;7.966;2023-12-28T03:57:02;8.80;99.90
15947;DHT22;8072;52.554;7.966;2023-12-28T03:59:29;8.90;99.90
15947;DHT22;8072;52.554;7.966;2023-12-28T04:01:55;8.90;99.90
15947;DHT22;8072;52.554;7.966;2023-12-28T04:04:22;9.00;99.90
15947;DHT22;8072;52.554;7.966;2023-12-28T04:06:48;9.00;99.90
15947;DHT22;8072;52.554;7.966;2023-12-28T04:09:15;9.00;99.90
15947;DHT22;8072;52.554;7.966;2023-12-28T04:11:40;9.00;99.90
15947;DHT22;8072;52.554;7.966;2023-12-28T04:14:06;9.00;99.90
15947;DHT22;8072;52.554;7.966;2023-12-28T04:16:33;9.00;99.90
15947;DHT22;8072;52.554;7.966;2023-12-28T04:19:01;9.00;99.90
15947;DHT22;8072;52.554;7.966;2023-12-28T04:21:28;9.10;99.90
15947;DHT22;8072;52.554;7.966;2023-12-28T04:23:54;9.20;99.90
15947;DHT22;8072;52.554;7.966;2023-12-28T04:26:21;9.20;99.90
15947;DHT22;8072;52.554;7.966;2023-12-28T04:28:48;9.20;99.90
15947;DHT22;8072;52.554;7.966;2023-12-28T04:31:14;9.20;99.90
15947;DHT22;8072;52.554;7.966;2023-12-28T04:33:40;9.20;99.90
15947;DHT22;8072;52.554;7.966;2023-12-28T04:36:08;9.30;99.90
15947;DHT22;8072;52.554;7.966;2023-12-28T04:38:35;9.20;99.90
15947;DHT22;8072;52.554;7.966;2023-12-28T04:41:02;9.30;99.90
15947;DHT22;8072;52.554;7.966;2023-12-28T04:43:32;9.30;99.90
15947;DHT22;8072;52.554;7.966;2023-12-28T04:46:05;9.30;99.90
15947;DHT22;8072;52.554;7.966;2023-12-28T04:48:35;9.40;99.90
15947;DHT22;8072;52.554;7.966;2023-12-28T04:51:02;9.30;99.90
15947;DHT22;8072;52.554;7.966;2023-12-28T04:53:28;9.40;99.90
15947;DHT22;8072;52.554;7.966;2023-12-28T04:55:55;9.40;99.90
15947;DHT22;8072;52.554;7.966;2023-12-28T04:58:21;9.40;99.90
15947;DHT22;8072;52.554;7.966;2023-12-28T05:00:47;9.40;99.90
15947;DHT22;8072;52.554;7.966;2023-12-28T05:03:13;9.50;99.90
15947;DHT22;8072;52.554;7.966;2023-12-28T05:05:39;9.50;99.90
15947;DHT22;8072;52.554;7.966;2023-12-28T05:08:05;9.60;99.90
15947;DHT22;8072;52.554;7.966;2023-12-28T05:10:30;9.60;99.90
15947;DHT22;8072;52.554;7.966;2023-12-28T05:12:57;9.60;99.90
15947;DHT22;8072;52.554;7.966;2023-12-28T05:15:23;9.60;99.90
15947;DHT22;8072;52.554;7.966;2023-12-28T05:17:49;9.60;99.90
15947;DHT22;8072;52.554;7.966;2023-12-28T05:20:16;9.70;99.90
15947;DHT22;8072;52.554;7.966;2023-12-28T05:22:42;9.70;99.90
15947;DHT22;8072;52.554;7.966;2023-12-28T05:25:07;9.70;99.90
15947;DHT22;8072;52.554;7.966;2023-12-28T05:27:33;9.70;99.90
15947;DHT22;8072;52.554;7.966;2023-12-28T05:29:59;9.80;99.90
15947;DHT22;8072;52.554;7.966;2023-12-28T05:32:25;9.80;99.90
15947;DHT22;8072;52.554;7.966;2023-12-28T05:34:52;9.80;99.90
15947;DHT22;8072;52.554;7.966;2023-12-28T05:37:18;9.90;99.90
15947;DHT22;8072;52.554;7.966;2023-12-28T05:39:44;9.80;99.90
15947;DHT22;8072;52.554;7.966;2023-12-28T05:42:10;9.90;99.90
15947;DHT22;8072;52.554;7.966;2023-12-28T05:44:35;9.90;99.90
15947;DHT22;8072;52.554;7.966;2023-12-28T05:47:01;9.90;99.90
15947;DHT22;8072;52.554;7.966;2023-12-28T05:49:28;9.90;99.90
15947;DHT22;8072;52.554;7.966;2023-12-28T05:51:54;9.80;99.90
15947;DHT22;8072;52.554;7.966;2023-12-28T05:54:23;9.90;99.90
15947;DHT22;8072;52.554;7.966;2023-12-28T05:56:49;9.90;99.90
15947;DHT22;8072;52.554;7.966;2023-12-28T05:59:15;10.00;99.90
15947;DHT22;8072;52.554;7.966;2023-12-28T06:01:42;10.10;99.90
15947;DHT22;8072;52.554;7.966;2023-12-28T06:04:09;10.10;99.90
15947;DHT22;8072;52.554;7.966;2023-12-28T06:06:35;10.20;99.90
15947;DHT22;8072;52.554;7.966;2023-12-28T06:09:02;10.20;99.90
15947;DHT22;8072;52.554;7.966;2023-12-28T06:11:28;10.20;99.90
15947;DHT22;8072;52.554;7.966;2023-12-28T06:14:01;10.20;99.90
15947;DHT22;8072;52.554;7.966;2023-12-28T06:16:28;10.20;99.90
15947;DHT22;8072;52.554;7.966;2023-12-28T06:18:58;10.30;99.90
15947;DHT22;8072;52.554;7.966;2023-12-28T06:21:24;10.30;99.90
15947;DHT22;8072;52.554;7.966;2023-12-28T06:23:50;10.40;99.90
15947;DHT22;8072;52.554;7.966;2023-12-28T06:26:16;10.50;99.90
15947;DHT22;8072;52.554;7.966;2023-12-28T06:28:42;10.60;99.90
15947;DHT22;8072;52.554;7.966;2023-12-28T06:31:08;10.60;99.90
15947;DHT22;8072;52.554;7.966;2023-12-28T06:33:34;10.60;99.90
15947;DHT22;8072;52.554;7.966;2023-12-28T06:36:05;10.60;99.90
15947;DHT22;8072;52.554;7.966;2023-12-28T06:38:31;10.50;99.90
15947;DHT22;8072;52.554;7.966;2023-12-28T06:40:57;10.50;99.90
15947;DHT22;8072;52.554;7.966;2023-12-28T06:43:23;10.50;99.90
15947;DHT22;8072;52.554;7.966;2023-12-28T06:45:48;10.50;99.90
15947;DHT22;8072;52.554;7.966;2023-12-28T06:48:15;10.50;99.90
15947;DHT22;8072;52.554;7.966;2023-12-28T06:50:42;10.50;99.90
15947;DHT22;8072;52.554;7.966;2023-12-28T06:53:09;10.50;99.90
15947;DHT22;8072;52.554;7.966;2023-12-28T06:55:36;10.50;99.90
15947;DHT22;8072;52.554;7.966;2023-12-28T06:58:01;10.40;99.90
15947;DHT22;8072;52.554;7.966;2023-12-28T07:00:27;10.40;99.90
15947;DHT22;8072;52.554;7.966;2023-12-28T07:02:53;10.40;99.90
15947;DHT22;8072;52.554;7.966;2023-12-28T07:05:18;10.40;99.90
15947;DHT22;8072;52.554;7.966;2023-12-28T07:07:44;10.40;99.90
15947;DHT22;8072;52.554;7.966;2023-12-28T07:10:10;10.40;99.90
15947;DHT22;8072;52.554;7.966;2023-12-28T07:12:36;10.50;99.90
15947;DHT22;8072;52.554;7.966;2023-12-28T07:15:03;10.50;99.90
15947;DHT22;8072;52.554;7.966;2023-12-28T07:17:29;10.50;99.90
15947;DHT22;8072;52.554;7.966;2023-12-28T07:19:55;10.60;99.90
15947;DHT22;8072;52.554;7.966;2023-12-28T07:22:21;10.50;99.90
15947;DHT22;8072;52.554;7.966;2023-12-28T07:24:47;10.50;99.90
15947;DHT22;8072;52.554;7.966;2023-12-28T07:27:13;10.60;99.90
15947;DHT22;8072;52.554;7.966;2023-12-28T07:29:38;10.60;99.90
15947;DHT22;8072;52.554;7.966;2023-12-28T07:32:04;10.60;99.90
15947;DHT22;8072;52.554;7.966;2023-12-28T07:34:30;10.60;99.90
15947;DHT22;8072;52.554;7.966;2023-12-28T07:36:56;10.60;99.90
15947;DHT22;8072;52.554;7.966;2023-12-28T07:39:22;10.50;99.90
15947;DHT22;8072;52.554;7.966;2023-12-28T07:41:47;10.50;99.90
15947;DHT22;8072;52.554;7.966;2023-12-28T07:44:16;10.60;99.90
15947;DHT22;8072;52.554;7.966;2023-12-28T07:46:42;10.50;99.90
15947;DHT22;8072;52.554;7.966;2023-12-28T07:49:08;10.50;99.90
15947;DHT22;8072;52.554;7.966;2023-12-28T07:51:34;10.50;99.90
15947;DHT22;8072;52.554;7.966;2023-12-28T07:54:01;10.50;99.90
15947;DHT22;8072;52.554;7.966;2023-12-28T07:56:26;10.50;99.90
15947;DHT22;8072;52.554;7.966;2023-12-28T07:58:53;10.50;99.90
15947;DHT22;8072;52.554;7.966;2023-12-28T08:01:19;10.50;99.90
15947;DHT22;8072;52.554;7.966;2023-12-28T08:03:45;10.50;99.90
15947;DHT22;8072;52.554;7.966;2023-12-28T08:06:12;10.50;99.90
15947;DHT22;8072;52.554;7.966;2023-12-28T08:08:38;10.60;99.90
15947;DHT22;8072;52.554;7.966;2023-12-28T08:11:04;10.50;99.90
15947;DHT22;8072;52.554;7.966;2023-12-28T08:13:30;10.50;99.90
15947;DHT22;8072;52.554;7.966;2023-12-28T08:15:55;10.50;99.90
15947;DHT22;8072;52.554;7.966;2023-12-28T08:18:21;10.50;99.90
15947;DHT22;8072;52.554;7.966;2023-12-28T08:20:48;10.60;99.90
15947;DHT22;8072;52.554;7.966;2023-12-28T08:23:16;10.60;99.90
15947;DHT22;8072;52.554;7.966;2023-12-28T08:25:43;10.50;99.90
15947;DHT22;8072;52.554;7.966;2023-12-28T08:28:10;10.50;99.90
15947;DHT22;8072;52.554;7.966;2023-12-28T08:30:35;10.50;99.90
15947;DHT22;8072;52.554;7.966;2023-12-28T08:33:01;10.50;99.90
15947;DHT22;8072;52.554;7.966;2023-12-28T08:35:27;10.50;99.90
15947;DHT22;8072;52.554;7.966;2023-12-28T08:37:53;10.50;99.90
15947;DHT22;8072;52.554;7.966;2023-12-28T08:40:19;10.60;99.90
15947;DHT22;8072;52.554;7.966;2023-12-28T08:42:44;10.60;99.90
15947;DHT22;8072;52.554;7.966;2023-12-28T08:45:11;10.60;99.90
15947;DHT22;8072;52.554;7.966;2023-12-28T08:47:38;10.60;99.90
15947;DHT22;8072;52.554;7.966;2023-12-28T08:50:04;10.50;99.90
15947;DHT22;8072;52.554;7.966;2023-12-28T08:52:29;10.60;99.90
15947;DHT22;8072;52.554;7.966;2023-12-28T08:54:55;10.60;99.90
15947;DHT22;8072;52.554;7.966;2023-12-28T08:57:21;10.60;99.90
15947;DHT22;8072;52.554;7.966;2023-12-28T08:59:47;10.60;99.90
15947;DHT22;8072;52.554;7.966;2023-12-28T09:02:13;10.70;99.90
15947;DHT22;8072;52.554;7.966;2023-12-28T09:04:39;10.70;99.90
15947;DHT22;8072;52.554;7.966;2023-12-28T09:07:05;10.70;99.90
15947;DHT22;8072;52.554;7.966;2023-12-28T09:09:31;10.70;99.90
15947;DHT22;8072;52.554;7.966;2023-12-28T09:11:56;10.70;99.90
15947;DHT22;8072;52.554;7.966;2023-12-28T09:14:22;10.70;99.90
15947;DHT22;8072;52.554;7.966;2023-12-28T09:16:49;10.70;99.90
15947;DHT22;8072;52.554;7.966;2023-12-28T09:19:15;10.70;99.90
15947;DHT22;8072;52.554;7.966;2023-12-28T09:21:41;10.70;99.90
15947;DHT22;8072;52.554;7.966;2023-12-28T09:24:07;10.80;99.90
15947;DHT22;8072;52.554;7.966;2023-12-28T09:26:33;10.80;99.90
15947;DHT22;8072;52.554;7.966;2023-12-28T09:28:59;10.80;99.90
15947;DHT22;8072;52.554;7.966;2023-12-28T09:31:25;10.90;99.90
15947;DHT22;8072;52.554;7.966;2023-12-28T09:33:51;10.90;99.90
15947;DHT22;8072;52.554;7.966;2023-12-28T09:36:18;10.90;99.90
15947;DHT22;8072;52.554;7.966;2023-12-28T09:38:44;10.90;99.90
15947;DHT22;8072;52.554;7.966;2023-12-28T09:41:12;10.80;99.90
15947;DHT22;8072;52.554;7.966;2023-12-28T09:43:56;10.80;99.90
15947;DHT22;8072;52.554;7.966;2023-12-28T09:46:33;10.80;99.90
15947;DHT22;8072;52.554;7.966;2023-12-28T09:49:01;10.80;99.90
15947;DHT22;8072;52.554;7.966;2023-12-28T09:51:27;10.80;99.90
15947;DHT22;8072;52.554;7.966;2023-12-28T09:53:56;10.80;99.90
15947;DHT22;8072;52.554;7.966;2023-12-28T09:56:23;10.80;99.90
15947;DHT22;8072;52.554;7.966;2023-12-28T09:58:51;10.90;99.90
15947;DHT22;8072;52.554;7.966;2023-12-28T10:01:18;10.80;99.90
15947;DHT22;8072;52.554;7.966;2023-12-28T10:03:44;10.80;99.90
15947;DHT22;8072;52.554;7.966;2023-12-28T10:06:10;10.80;99.90
15947;DHT22;8072;52.554;7.966;2023-12-28T10:08:36;10.80;99.90
15947;DHT22;8072;52.554;7.966;2023-12-28T10:11:02;10.90;99.90
15947;DHT22;8072;52.554;7.966;2023-12-28T10:13:28;10.80;99.90
15947;DHT22;8072;52.554;7.966;2023-12-28T10:15:57;10.80;99.90
15947;DHT22;8072;52.554;7.966;2023-12-28T10:18:24;10.90;99.90
15947;DHT22;8072;52.554;7.966;2023-12-28T10:20:53;10.90;99.90
15947;DHT22;8072;52.554;7.966;2023-12-28T10:23:19;10.90;99.90
15947;DHT22;8072;52.554;7.966;2023-12-28T10:25:46;11.00;99.90
15947;DHT22;8072;52.554;7.966;2023-12-28T10:28:12;11.00;99.90
15947;DHT22;8072;52.554;7.966;2023-12-28T10:30:39;11.00;99.90
15947;DHT22;8072;52.554;7.966;2023-12-28T10:33:06;11.00;99.90
15947;DHT22;8072;52.554;7.966;2023-12-28T10:35:32;11.10;99.90
15947;DHT22;8072;52.554;7.966;2023-12-28T10:38:02;11.10;99.90
15947;DHT22;8072;52.554;7.966;2023-12-28T10:40:30;11.20;99.90
15947;DHT22;8072;52.554;7.966;2023-12-28T10:43:05;11.20;99.90
15947;DHT22;8072;52.554;7.966;2023-12-28T10:45:33;11.20;99.90
15947;DHT22;8072;52.554;7.966;2023-12-28T10:48:08;11.20;99.90
15947;DHT22;8072;52.554;7.966;2023-12-28T10:50:39;11.20;99.90
15947;DHT22;8072;52.554;7.966;2023-12-28T10:53:37;11.20;99.90
15947;DHT22;8072;52.554;7.966;2023-12-28T10:58:52;11.30;99.90
15947;DHT22;8072;52.554;7.966;2023-12-28T11:01:27;11.30;99.90
15947;DHT22;8072;52.554;7.966;2023-12-28T11:06:36;11.30;99.90
15947;DHT22;8072;52.554;7.966;2023-12-28T11:09:04;11.30;99.90
15947;DHT22;8072;52.554;7.966;2023-12-28T11:11:33;11.30;99.90
15947;DHT22;8072;52.554;7.966;2023-12-28T11:14:00;11.30;99.90
15947;DHT22;8072;52.554;7.966;2023-12-28T11:16:28;11.30;99.90
15947;DHT22;8072;52.554;7.966;2023-12-28T11:19:01;11.30;99.90
15947;DHT22;8072;52.554;7.966;2023-12-28T11:21:28;11.30;99.90
15947;DHT22;8072;52.554;7.966;2023-12-28T11:23:55;11.20;99.90
15947;DHT22;8072;52.554;7.966;2023-12-28T11:26:21;11.20;99.90
15947;DHT22;8072;52.554;7.966;2023-12-28T11:28:48;11.20;99.90
15947;DHT22;8072;52.554;7.966;2023-12-28T11:31:15;11.20;99.90
15947;DHT22;8072;52.554;7.966;2023-12-28T11:33:50;11.20;99.90
15947;DHT22;8072;52.554;7.966;2023-12-28T11:36:40;11.20;99.90
15947;DHT22;8072;52.554;7.966;2023-12-28T11:39:08;11.20;99.90
15947;DHT22;8072;52.554;7.966;2023-12-28T11:41:38;11.20;99.90
15947;DHT22;8072;52.554;7.966;2023-12-28T11:44:05;11.20;99.90
15947;DHT22;8072;52.554;7.966;2023-12-28T11:46:32;11.30;99.90
15947;DHT22;8072;52.554;7.966;2023-12-28T11:49:06;11.30;99.90
15947;DHT22;8072;52.554;7.966;2023-12-28T11:51:35;11.30;99.90
15947;DHT22;8072;52.554;7.966;2023-12-28T11:54:03;11.30;99.90
15947;DHT22;8072;52.554;7.966;2023-12-28T11:56:30;11.30;99.90
15947;DHT22;8072;52.554;7.966;2023-12-28T11:58:58;11.30;99.90
15947;DHT22;8072;52.554;7.966;2023-12-28T12:01:27;11.30;99.90
15947;DHT22;8072;52.554;7.966;2023-12-28T12:03:53;11.20;99.90
15947;DHT22;8072;52.554;7.966;2023-12-28T12:06:20;11.20;99.90
15947;DHT22;8072;52.554;7.966;2023-12-28T12:08:46;11.20;99.90
15947;DHT22;8072;52.554;7.966;2023-12-28T12:11:12;11.10;99.90
15947;DHT22;8072;52.554;7.966;2023-12-28T12:13:39;11.20;99.90
15947;DHT22;8072;52.554;7.966;2023-12-28T12:16:06;11.10;99.90
15947;DHT22;8072;52.554;7.966;2023-12-28T12:18:32;11.10;99.90
15947;DHT22;8072;52.554;7.966;2023-12-28T12:20:59;11.10;99.90
15947;DHT22;8072;52.554;7.966;2023-12-28T12:23:24;11.00;99.90
15947;DHT22;8072;52.554;7.966;2023-12-28T12:25:51;11.00;99.90
15947;DHT22;8072;52.554;7.966;2023-12-28T12:28:17;10.90;99.90
15947;DHT22;8072;52.554;7.966;2023-12-28T12:30:55;10.90;99.90
15947;DHT22;8072;52.554;7.966;2023-12-28T12:33:22;10.90;99.90
15947;DHT22;8072;52.554;7.966;2023-12-28T12:35:49;10.90;99.90
15947;DHT22;8072;52.554;7.966;2023-12-28T12:38:16;10.90;99.90
15947;DHT22;8072;52.554;7.966;2023-12-28T12:40:42;10.90;99.90
15947;DHT22;8072;52.554;7.966;2023-12-28T12:43:09;10.90;99.90
15947;DHT22;8072;52.554;7.966;2023-12-28T12:45:35;10.90;99.90
15947;DHT22;8072;52.554;7.966;2023-12-28T12:48:03;11.00;99.90
15947;DHT22;8072;52.554;7.966;2023-12-28T12:50:33;11.00;99.90
15947;DHT22;8072;52.554;7.966;2023-12-28T12:53:04;11.00;99.90
15947;DHT22;8072;52.554;7.966;2023-12-28T12:55:30;11.00;99.90
15947;DHT22;8072;52.554;7.966;2023-12-28T12:58:00;11.00;99.90
15947;DHT22;8072;52.554;7.966;2023-12-28T13:00:27;11.00;99.90
15947;DHT22;8072;52.554;7.966;2023-12-28T13:02:53;11.00;99.90
15947;DHT22;8072;52.554;7.966;2023-12-28T13:05:21;11.00;99.90
15947;DHT22;8072;52.554;7.966;2023-12-28T13:07:47;11.00;99.90
15947;DHT22;8072;52.554;7.966;2023-12-28T13:10:13;11.00;99.90
15947;DHT22;8072;52.554;7.966;2023-12-28T13:12:42;11.10;99.90
15947;DHT22;8072;52.554;7.966;2023-12-28T13:15:08;11.10;99.90
15947;DHT22;8072;52.554;7.966;2023-12-28T13:17:36;11.10;99.90
15947;DHT22;8072;52.554;7.966;2023-12-28T13:20:04;11.10;99.90
15947;DHT22;8072;52.554;7.966;2023-12-28T13:22:34;11.10;99.90
15947;DHT22;8072;52.554;7.966;2023-12-28T13:25:00;11.10;99.90
15947;DHT22;8072;52.554;7.966;2023-12-28T13:27:29;11.00;99.90
15947;DHT22;8072;52.554;7.966;2023-12-28T13:29:56;11.10;99.90
15947;DHT22;8072;52.554;7.966;2023-12-28T13:32:22;11.10;99.90
15947;DHT22;8072;52.554;7.966;2023-12-28T13:34:49;11.10;99.90
15947;DHT22;8072;52.554;7.966;2023-12-28T13:37:17;11.10;99.90
15947;DHT22;8072;52.554;7.966;2023-12-28T13:39:43;11.10;99.90
15947;DHT22;8072;52.554;7.966;2023-12-28T13:42:09;11.10;99.90
15947;DHT22;8072;52.554;7.966;2023-12-28T13:44:35;11.00;99.90
15947;DHT22;8072;52.554;7.966;2023-12-28T13:47:02;11.00;99.90
15947;DHT22;8072;52.554;7.966;2023-12-28T13:49:28;11.00;99.90
15947;DHT22;8072;52.554;7.966;2023-12-28T13:51:55;11.00;99.90
15947;DHT22;8072;52.554;7.966;2023-12-28T13:54:21;11.00;99.90
15947;DHT22;8072;52.554;7.966;2023-12-28T13:56:47;11.00;99.90
15947;DHT22;8072;52.554;7.966;2023-12-28T13:59:13;11.00;99.90
15947;DHT22;8072;52.554;7.966;2023-12-28T14:01:40;11.00;99.90
15947;DHT22;8072;52.554;7.966;2023-12-28T14:04:07;11.00;99.90
15947;DHT22;8072;52.554;7.966;2023-12-28T14:06:33;11.00;99.90
15947;DHT22;8072;52.554;7.966;2023-12-28T14:09:01;11.00;99.90
15947;DHT22;8072;52.554;7.966;2023-12-28T14:11:26;11.00;99.90
15947;DHT22;8072;52.554;7.966;2023-12-28T14:13:52;11.00;99.90
15947;DHT22;8072;52.554;7.966;2023-12-28T14:16:19;10.90;99.90
15947;DHT22;8072;52.554;7.966;2023-12-28T14:18:44;11.00;99.90
15947;DHT22;8072;52.554;7.966;2023-12-28T14:21:12;11.00;99.90
15947;DHT22;8072;52.554;7.966;2023-12-28T14:23:40;11.00;99.90
15947;DHT22;8072;52.554;7.966;2023-12-28T14:26:14;11.00;99.90
15947;DHT22;8072;52.554;7.966;2023-12-28T14:28:42;11.00;99.90
15947;DHT22;8072;52.554;7.966;2023-12-28T14:31:10;11.00;99.90
15947;DHT22;8072;52.554;7.966;2023-12-28T14:33:37;11.00;99.90
15947;DHT22;8072;52.554;7.966;2023-12-28T14:38:54;11.00;99.90
15947;DHT22;8072;52.554;7.966;2023-12-28T14:41:20;11.00;99.90
15947;DHT22;8072;52.554;7.966;2023-12-28T14:43:46;11.00;99.90
15947;DHT22;8072;52.554;7.966;2023-12-28T14:46:13;11.00;99.90
15947;DHT22;8072;52.554;7.966;2023-12-28T14:48:40;10.90;99.90
15947;DHT22;8072;52.554;7.966;2023-12-28T14:51:06;10.90;99.90
15947;DHT22;8072;52.554;7.966;2023-12-28T14:53:32;10.90;99.90
15947;DHT22;8072;52.554;7.966;2023-12-28T14:55:58;10.90;99.90
15947;DHT22;8072;52.554;7.966;2023-12-28T14:58:25;10.80;99.90
15947;DHT22;8072;52.554;7.966;2023-12-28T15:00:52;10.80;99.90
15947;DHT22;8072;52.554;7.966;2023-12-28T15:03:21;10.80;99.90
15947;DHT22;8072;52.554;7.966;2023-12-28T15:05:47;10.80;99.90
15947;DHT22;8072;52.554;7.966;2023-12-28T15:08:13;10.70;99.90
15947;DHT22;8072;52.554;7.966;2023-12-28T15:10:41;10.70;99.90
15947;DHT22;8072;52.554;7.966;2023-12-28T15:13:08;10.70;99.90
15947;DHT22;8072;52.554;7.966;2023-12-28T15:15:35;10.70;99.90
15947;DHT22;8072;52.554;7.966;2023-12-28T15:18:02;10.70;99.90
15947;DHT22;8072;52.554;7.966;2023-12-28T15:20:28;10.70;99.90
15947;DHT22;8072;52.554;7.966;2023-12-28T15:22:54;10.60;99.90
15947;DHT22;8072;52.554;7.966;2023-12-28T15:25:20;10.60;99.90
15947;DHT22;8072;52.554;7.966;2023-12-28T15:27:47;10.60;99.90
15947;DHT22;8072;52.554;7.966;2023-12-28T15:30:14;10.60;99.90
15947;DHT22;8072;52.554;7.966;2023-12-28T15:32:40;10.60;99.90
15947;DHT22;8072;52.554;7.966;2023-12-28T15:35:06;10.70;99.90
15947;DHT22;8072;52.554;7.966;2023-12-28T15:37:33;10.70;99.90
15947;DHT22;8072;52.554;7.966;2023-12-28T15:39:58;10.70;99.90
15947;DHT22;8072;52.554;7.966;2023-12-28T15:42:25;10.70;99.90
15947;DHT22;8072;52.554;7.966;2023-12-28T15:44:51;10.70;99.90
15947;DHT22;8072;52.554;7.966;2023-12-28T15:47:18;10.70;99.90
15947;DHT22;8072;52.554;7.966;2023-12-28T15:49:44;10.70;99.90
15947;DHT22;8072;52.554;7.966;2023-12-28T15:52:11;10.70;99.90
15947;DHT22;8072;52.554;7.966;2023-12-28T15:54:38;10.60;99.90
15947;DHT22;8072;52.554;7.966;2023-12-28T15:57:04;10.60;99.90
15947;DHT22;8072;52.554;7.966;2023-12-28T15:59:30;10.60;99.90